Time;durP1;ratioP1;P1;durP2;ratioP2;P2;SDS_P1;SDS_P2;PMS_P1;PMS_P2;Temp;Humidity;BMP_temperature;BMP_pressure;BME280_temperature;BME280_humidity;BME280_pressure;Samples;Min_cycle;Max_cycle;Signal;HPM_P1;HPM_P2
2022/11/13 00:01:57;;;;;;;17.40;12.05;;;;;;;;;;4929019;29;20396;-76
2022/11/13 00:04:25;;;;;;;16.38;11.20;;;;;;;;;;4950007;28;20117;-75
2022/11/13 00:06:51;;;;;;;13.55;10.25;;;;;;;;;;4947897;28;20027;-75
2022/11/13 00:09:17;;;;;;;15.70;11.38;;;;;;;;;;4962259;28;20046;-75
2022/11/13 00:11:43;;;;;;;15.43;10.60;;;;;;;;;;4943786;28;20046;-76
2022/11/13 00:14:10;;;;;;;14.70;11.07;;;;;;;;;;4950584;28;20031;-75
2022/11/13 00:16:36;;;;;;;12.85;10.75;;;;;;;;;;4945050;28;20042;-75
2022/11/13 00:19:02;;;;;;;15.40;10.77;;;;;;;;;;4951858;28;20031;-75
2022/11/13 00:21:28;;;;;;;18.92;11.38;;;;;;;;;;4952029;28;20173;-75
2022/11/13 00:23:55;;;;;;;16.55;11.70;;;;;;;;;;4934817;29;20066;-76
2022/11/13 00:26:22;;;;;;;19.48;11.40;;;;;;;;;;4946254;28;20035;-75
2022/11/13 00:28:52;;;;;;;15.27;10.15;;;;;;;;;;4948844;29;20140;-76
2022/11/13 00:31:19;;;;;;;18.77;10.25;;;;;;;;;;4944715;28;20050;-75
2022/11/13 00:33:45;;;;;;;12.23;10.07;;;;;;;;;;4955748;28;20392;-76
2022/11/13 00:36:14;;;;;;;13.88;10.15;;;;;;;;;;4964643;28;20376;-75
2022/11/13 00:38:40;;;;;;;11.38;9.48;;;;;;;;;;4939214;28;20039;-76
2022/11/13 00:41:06;;;;;;;13.00;9.50;;;;;;;;;;4945540;28;20031;-76
2022/11/13 00:43:32;;;;;;;15.13;10.00;;;;;;;;;;4960618;28;20416;-76
2022/11/13 00:45:58;;;;;;;13.20;9.32;;;;;;;;;;4943637;28;20520;-75
2022/11/13 00:48:25;;;;;;;13.95;10.18;;;;;;;;;;4952770;28;20360;-75
2022/11/13 00:50:51;;;;;;;14.40;9.70;;;;;;;;;;4943375;28;20078;-75
2022/11/13 00:53:17;;;;;;;12.77;9.80;;;;;;;;;;4969987;28;20110;-75
2022/11/13 00:55:43;;;;;;;13.50;9.65;;;;;;;;;;4957024;28;20079;-76
2022/11/13 00:58:10;;;;;;;13.05;10.20;;;;;;;;;;4970577;28;20074;-75
2022/11/13 01:00:36;;;;;;;12.93;10.05;;;;;;;;;;4946263;28;20051;-75
2022/11/13 01:03:02;;;;;;;13.13;10.32;;;;;;;;;;4942949;28;20058;-76
2022/11/13 01:05:29;;;;;;;15.32;11.35;;;;;;;;;;4925831;29;20036;-76
2022/11/13 01:07:55;;;;;;;20.25;12.45;;;;;;;;;;4945549;29;20042;-76
2022/11/13 01:10:21;;;;;;;20.35;12.27;;;;;;;;;;4925325;29;20058;-75
2022/11/13 01:12:47;;;;;;;17.83;12.70;;;;;;;;;;4932150;29;20039;-75
2022/11/13 01:15:13;;;;;;;15.90;12.27;;;;;;;;;;4925044;29;20032;-75
2022/11/13 01:17:39;;;;;;;19.80;13.70;;;;;;;;;;4933228;29;20034;-75
2022/11/13 01:20:05;;;;;;;20.33;13.90;;;;;;;;;;4921900;29;20027;-76
2022/11/13 01:22:31;;;;;;;20.25;14.35;;;;;;;;;;4929479;29;20936;-76
2022/11/13 01:24:57;;;;;;;21.63;14.05;;;;;;;;;;4936568;29;20078;-75
2022/11/13 01:27:23;;;;;;;19.77;13.02;;;;;;;;;;4933387;29;20080;-75
2022/11/13 01:29:49;;;;;;;20.10;14.20;;;;;;;;;;4926510;29;20050;-75
2022/11/13 01:32:15;;;;;;;15.52;12.02;;;;;;;;;;4933952;29;20024;-75
2022/11/13 01:34:41;;;;;;;19.60;14.00;;;;;;;;;;4935001;29;20111;-75
2022/11/13 01:37:07;;;;;;;16.98;12.88;;;;;;;;;;4935072;29;20067;-75
2022/11/13 01:39:33;;;;;;;15.60;12.90;;;;;;;;;;4913860;29;20040;-75
2022/11/13 01:42:00;;;;;;;20.58;12.75;;;;;;;;;;4934639;29;20051;-75
2022/11/13 01:44:44;;;;;;;16.75;12.45;;;;;;;;;;4938674;29;20023;-75
2022/11/13 01:47:11;;;;;;;17.10;12.75;;;;;;;;;;4934468;29;20031;-75
2022/11/13 01:49:37;;;;;;;16.85;12.02;;;;;;;;;;4931051;29;20115;-75
2022/11/13 01:52:06;;;;;;;17.02;12.93;;;;;;;;;;4933388;29;20040;-74
2022/11/13 01:55:04;;;;;;;20.42;14.60;;;;;;;;;;4930539;29;20040;-75
2022/11/13 01:57:31;;;;;;;20.40;14.93;;;;;;;;;;4894788;29;20035;-75
2022/11/13 01:59:59;;;;;;;19.67;13.35;;;;;;;;;;4930383;29;20050;-75
2022/11/13 02:02:26;;;;;;;22.15;13.98;;;;;;;;;;4934655;29;20059;-74
2022/11/13 02:04:52;;;;;;;22.77;12.80;;;;;;;;;;4954850;28;20038;-74
2022/11/13 02:07:19;;;;;;;19.65;14.25;;;;;;;;;;4951538;28;20062;-75
2022/11/13 02:09:49;;;;;;;23.15;13.25;;;;;;;;;;4953175;28;20034;-76
2022/11/13 02:12:21;;;;;;;22.65;13.90;;;;;;;;;;4943615;29;20047;-76
2022/11/13 02:14:50;;;;;;;25.70;13.43;;;;;;;;;;4949560;28;20329;-75
2022/11/13 02:17:20;;;;;;;19.85;13.40;;;;;;;;;;4951396;28;20042;-74
2022/11/13 02:19:48;;;;;;;17.73;12.77;;;;;;;;;;4945991;28;20027;-75
2022/11/13 02:22:33;;;;;;;21.15;13.13;;;;;;;;;;4951628;29;20042;-75
2022/11/13 02:25:01;;;;;;;22.45;13.63;;;;;;;;;;4931580;28;20034;-75
2022/11/13 02:27:33;;;;;;;18.27;12.65;;;;;;;;;;4951254;28;20550;-75
2022/11/13 02:30:10;;;;;;;18.02;12.82;;;;;;;;;;4946002;28;20054;-74
2022/11/13 02:32:41;;;;;;;17.25;12.27;;;;;;;;;;4953865;28;20024;-75
2022/11/13 02:35:07;;;;;;;15.77;11.75;;;;;;;;;;4949111;28;20034;-75
2022/11/13 02:37:33;;;;;;;16.30;12.07;;;;;;;;;;4954766;29;20047;-75
2022/11/13 02:39:59;;;;;;;18.20;12.30;;;;;;;;;;4944168;28;20472;-75
2022/11/13 02:42:25;;;;;;;17.80;12.32;;;;;;;;;;4955393;28;20491;-75
2022/11/13 02:44:51;;;;;;;19.58;12.35;;;;;;;;;;4951595;28;20031;-75
2022/11/13 02:47:17;;;;;;;19.23;13.32;;;;;;;;;;4956761;28;20024;-75
2022/11/13 02:49:43;;;;;;;17.52;12.82;;;;;;;;;;4954052;28;20031;-76
2022/11/13 02:52:09;;;;;;;17.42;12.45;;;;;;;;;;4948078;28;20042;-75
2022/11/13 02:54:35;;;;;;;20.23;13.57;;;;;;;;;;4953669;28;20031;-75
2022/11/13 02:57:01;;;;;;;17.92;13.18;;;;;;;;;;4962960;28;20015;-75
2022/11/13 02:59:27;;;;;;;17.23;13.00;;;;;;;;;;4949782;28;20030;-74
2022/11/13 03:01:54;;;;;;;16.75;13.45;;;;;;;;;;4957455;28;20079;-74
2022/11/13 03:04:20;;;;;;;20.35;14.73;;;;;;;;;;4937588;28;20055;-74
2022/11/13 03:06:46;;;;;;;18.95;13.98;;;;;;;;;;4943784;29;20038;-75
2022/11/13 03:09:12;;;;;;;21.73;14.63;;;;;;;;;;4917432;29;20233;-75
2022/11/13 03:11:38;;;;;;;20.55;14.70;;;;;;;;;;4935543;29;20067;-74
2022/11/13 03:14:04;;;;;;;21.08;14.10;;;;;;;;;;4914768;29;20074;-75
2022/11/13 03:16:30;;;;;;;20.92;14.55;;;;;;;;;;4925406;29;20083;-73
2022/11/13 03:18:56;;;;;;;23.20;15.18;;;;;;;;;;4931925;29;20047;-74
2022/11/13 03:21:22;;;;;;;24.38;15.43;;;;;;;;;;4932997;29;20311;-74
2022/11/13 03:23:48;;;;;;;22.73;16.23;;;;;;;;;;4909623;29;20449;-74
2022/11/13 03:26:16;;;;;;;21.92;15.25;;;;;;;;;;4926632;29;20034;-74
2022/11/13 03:28:42;;;;;;;23.20;15.18;;;;;;;;;;4911738;29;20028;-74
2022/11/13 03:31:08;;;;;;;21.23;15.82;;;;;;;;;;4925986;29;20068;-76
2022/11/13 03:33:34;;;;;;;20.70;16.80;;;;;;;;;;4932778;29;20042;-73
2022/11/13 03:36:00;;;;;;;20.73;15.77;;;;;;;;;;4935125;29;20019;-73
2022/11/13 03:38:26;;;;;;;21.35;15.98;;;;;;;;;;4927927;29;20039;-73
2022/11/13 03:40:52;;;;;;;19.65;15.55;;;;;;;;;;4937613;29;20283;-73
2022/11/13 03:43:18;;;;;;;21.77;15.57;;;;;;;;;;4931998;29;20031;-73
2022/11/13 03:45:46;;;;;;;22.63;16.67;;;;;;;;;;4930690;29;20031;-75
2022/11/13 03:48:12;;;;;;;28.50;17.95;;;;;;;;;;4929065;29;20488;-73
2022/11/13 03:50:39;;;;;;;21.73;16.25;;;;;;;;;;4919331;29;20028;-74
2022/11/13 03:53:07;;;;;;;24.63;16.23;;;;;;;;;;4934944;29;20036;-73
2022/11/13 03:55:34;;;;;;;28.20;17.58;;;;;;;;;;4929723;29;20138;-74
2022/11/13 03:58:00;;;;;;;26.27;16.98;;;;;;;;;;4930136;29;20368;-73
2022/11/13 04:00:26;;;;;;;23.85;16.48;;;;;;;;;;4923377;29;20373;-73
2022/11/13 04:02:52;;;;;;;22.85;17.27;;;;;;;;;;4935614;28;20059;-73
2022/11/13 04:05:18;;;;;;;24.73;17.55;;;;;;;;;;4945609;28;20372;-74
2022/11/13 04:07:44;;;;;;;22.65;17.23;;;;;;;;;;4959944;28;20031;-75
2022/11/13 04:10:10;;;;;;;24.70;17.52;;;;;;;;;;4951243;28;20031;-74
2022/11/13 04:12:36;;;;;;;22.80;17.38;;;;;;;;;;4943772;28;20362;-75
2022/11/13 04:15:02;;;;;;;23.48;16.77;;;;;;;;;;4950925;28;20038;-75
2022/11/13 04:17:28;;;;;;;19.60;16.05;;;;;;;;;;4951375;28;20081;-74
2022/11/13 04:19:54;;;;;;;25.02;18.00;;;;;;;;;;4930728;29;20040;-75
2022/11/13 04:22:20;;;;;;;25.63;18.77;;;;;;;;;;4944199;28;20027;-74
2022/11/13 04:24:46;;;;;;;25.98;18.50;;;;;;;;;;4934055;29;20031;-74
2022/11/13 04:27:12;;;;;;;26.15;17.42;;;;;;;;;;4950491;28;20516;-76
2022/11/13 04:29:38;;;;;;;26.85;18.48;;;;;;;;;;4944032;28;20491;-75
2022/11/13 04:32:04;;;;;;;21.92;17.42;;;;;;;;;;4916794;29;20123;-76
2022/11/13 04:34:30;;;;;;;25.58;18.25;;;;;;;;;;4935244;28;20034;-74
2022/11/13 04:36:56;;;;;;;25.13;17.92;;;;;;;;;;4967530;28;20037;-75
2022/11/13 04:39:22;;;;;;;24.60;18.92;;;;;;;;;;4953364;28;20027;-74
2022/11/13 04:44:33;;;;;;;26.92;19.50;;;;;;;;;;4943858;28;20168;-75
2022/11/13 04:46:59;;;;;;;24.60;18.17;;;;;;;;;;4948924;28;20441;-75
2022/11/13 04:49:25;;;;;;;29.50;19.33;;;;;;;;;;4950005;28;20495;-75
2022/11/13 04:51:51;;;;;;;23.50;18.73;;;;;;;;;;4950647;29;20618;-75
2022/11/13 04:54:17;;;;;;;28.13;18.08;;;;;;;;;;4946945;28;20455;-75
2022/11/13 04:56:43;;;;;;;25.45;19.10;;;;;;;;;;4960198;28;24968;-75
2022/11/13 04:59:09;;;;;;;30.63;20.25;;;;;;;;;;4951485;28;20035;-75
2022/11/13 05:01:35;;;;;;;30.60;20.25;;;;;;;;;;4961291;28;20027;-74
2022/11/13 05:04:02;;;;;;;23.77;18.50;;;;;;;;;;4949209;28;20046;-75
2022/11/13 05:06:28;;;;;;;27.30;18.50;;;;;;;;;;4950616;28;20504;-75
2022/11/13 05:08:54;;;;;;;25.25;19.15;;;;;;;;;;4946992;28;20411;-76
2022/11/13 05:11:20;;;;;;;28.30;20.17;;;;;;;;;;4945419;28;20349;-76
2022/11/13 05:13:46;;;;;;;24.50;17.85;;;;;;;;;;4953341;28;20345;-75
2022/11/13 05:16:13;;;;;;;23.55;18.42;;;;;;;;;;4954129;29;20472;-76
2022/11/13 05:18:39;;;;;;;21.95;18.30;;;;;;;;;;4964596;28;20031;-75
2022/11/13 05:21:06;;;;;;;24.67;19.58;;;;;;;;;;4952033;28;20043;-75
2022/11/13 05:23:32;;;;;;;24.23;17.50;;;;;;;;;;4945408;28;20042;-74
2022/11/13 05:26:05;;;;;;;27.98;18.50;;;;;;;;;;4954760;28;20034;-75
2022/11/13 05:28:32;;;;;;;21.92;18.08;;;;;;;;;;4954173;28;20039;-74
2022/11/13 05:31:08;;;;;;;25.65;18.08;;;;;;;;;;4937939;28;20039;-74
2022/11/13 05:33:35;;;;;;;26.52;18.20;;;;;;;;;;4938627;28;20035;-74
2022/11/13 05:36:02;;;;;;;24.15;18.40;;;;;;;;;;4949155;28;20023;-75
2022/11/13 05:38:28;;;;;;;23.48;17.25;;;;;;;;;;4949316;28;20126;-74
2022/11/13 05:40:54;;;;;;;26.80;20.00;;;;;;;;;;4953076;28;20502;-75
2022/11/13 05:43:20;;;;;;;46.10;29.15;;;;;;;;;;4954562;28;20063;-75
2022/11/13 05:45:46;;;;;;;32.30;22.83;;;;;;;;;;4953973;28;20102;-73
2022/11/13 05:48:12;;;;;;;23.48;16.95;;;;;;;;;;4935366;29;20050;-75
2022/11/13 05:50:38;;;;;;;22.27;17.02;;;;;;;;;;4957005;28;20035;-74
2022/11/13 05:53:04;;;;;;;26.95;18.52;;;;;;;;;;4937025;29;20117;-72
2022/11/13 05:55:30;;;;;;;25.55;17.20;;;;;;;;;;4955443;28;20042;-73
2022/11/13 05:57:58;;;;;;;24.92;17.98;;;;;;;;;;4954000;28;20031;-74
2022/11/13 06:00:24;;;;;;;24.15;17.58;;;;;;;;;;4943492;28;20520;-75
2022/11/13 06:02:50;;;;;;;25.33;18.02;;;;;;;;;;4949404;28;20670;-74
2022/11/13 06:05:16;;;;;;;30.77;18.35;;;;;;;;;;4965891;28;20388;-74
2022/11/13 06:07:42;;;;;;;22.83;18.38;;;;;;;;;;4953178;28;20483;-75
2022/11/13 06:10:08;;;;;;;26.17;18.10;;;;;;;;;;4953647;28;20377;-78
2022/11/13 06:12:34;;;;;;;27.13;18.88;;;;;;;;;;4960814;28;20036;-74
2022/11/13 06:15:00;;;;;;;29.65;18.77;;;;;;;;;;4955423;28;20032;-75
2022/11/13 06:17:26;;;;;;;24.38;17.80;;;;;;;;;;4948818;28;20441;-74
2022/11/13 06:19:52;;;;;;;30.38;19.58;;;;;;;;;;4954054;28;20035;-72
2022/11/13 06:22:18;;;;;;;29.02;20.63;;;;;;;;;;4954590;29;20027;-75
2022/11/13 06:24:44;;;;;;;31.40;23.02;;;;;;;;;;4938149;28;20055;-76
2022/11/13 06:27:10;;;;;;;36.40;24.80;;;;;;;;;;4940070;28;20039;-72
2022/11/13 06:29:36;;;;;;;26.40;18.55;;;;;;;;;;4962992;28;20392;-73
2022/11/13 06:32:02;;;;;;;24.73;18.42;;;;;;;;;;4943035;28;20493;-73
2022/11/13 06:34:28;;;;;;;26.80;18.08;;;;;;;;;;4952877;28;20127;-73
2022/11/13 06:36:54;;;;;;;27.30;19.90;;;;;;;;;;4953434;28;20039;-74
2022/11/13 06:39:20;;;;;;;24.45;17.73;;;;;;;;;;4954049;28;20039;-76
2022/11/13 06:41:46;;;;;;;23.58;17.15;;;;;;;;;;4949933;28;20055;-77
2022/11/13 06:44:12;;;;;;;26.02;17.80;;;;;;;;;;4950978;28;20035;-74
2022/11/13 06:46:39;;;;;;;31.15;17.73;;;;;;;;;;4954398;28;20048;-75
2022/11/13 06:49:05;;;;;;;21.38;16.48;;;;;;;;;;4943216;28;20098;-77
2022/11/13 06:51:31;;;;;;;21.65;16.15;;;;;;;;;;4953098;28;20035;-76
2022/11/13 06:53:57;;;;;;;25.42;17.10;;;;;;;;;;4951813;28;20039;-76
2022/11/13 06:56:24;;;;;;;27.52;17.77;;;;;;;;;;4954202;28;20119;-75
2022/11/13 06:58:50;;;;;;;23.63;17.02;;;;;;;;;;4952024;29;20432;-75
2022/11/13 07:01:17;;;;;;;23.55;17.23;;;;;;;;;;4953316;28;20031;-76
2022/11/13 07:03:43;;;;;;;22.98;16.83;;;;;;;;;;4948919;28;20047;-77
2022/11/13 07:06:14;;;;;;;28.60;18.13;;;;;;;;;;4954077;29;20031;-75
2022/11/13 07:08:41;;;;;;;22.42;17.23;;;;;;;;;;4940994;28;20034;-78
2022/11/13 07:11:07;;;;;;;57.80;33.65;;;;;;;;;;4966591;28;20039;-77
2022/11/13 07:13:34;;;;;;;40.25;26.42;;;;;;;;;;4950538;29;20447;-77
2022/11/13 07:16:02;;;;;;;28.38;17.83;;;;;;;;;;4946063;28;20062;-76
2022/11/13 07:18:28;;;;;;;23.70;16.63;;;;;;;;;;4942581;28;20109;-76
2022/11/13 07:20:54;;;;;;;28.75;20.33;;;;;;;;;;4930699;29;20494;-77
2022/11/13 07:23:20;;;;;;;26.38;20.50;;;;;;;;;;4950667;28;20543;-76
2022/11/13 07:25:46;;;;;;;29.48;19.02;;;;;;;;;;4940709;28;20099;-76
2022/11/13 07:28:12;;;;;;;22.58;18.25;;;;;;;;;;4956553;28;20384;-75
2022/11/13 07:30:39;;;;;;;26.00;16.38;;;;;;;;;;4949764;28;20043;-76
2022/11/13 07:33:05;;;;;;;29.73;19.42;;;;;;;;;;4953580;28;20464;-76
2022/11/13 07:35:31;;;;;;;26.85;19.40;;;;;;;;;;4927002;28;20028;-76
2022/11/13 07:37:59;;;;;;;26.40;17.52;;;;;;;;;;4944321;28;20469;-76
2022/11/13 07:40:25;;;;;;;23.92;18.45;;;;;;;;;;4954856;28;20178;-76
2022/11/13 07:42:58;;;;;;;26.05;18.63;;;;;;;;;;4950713;28;20050;-78
2022/11/13 07:45:24;;;;;;;38.70;24.77;;;;;;;;;;4954717;28;20038;-76
2022/11/13 07:47:50;;;;;;;31.50;21.15;;;;;;;;;;4945245;28;20031;-76
2022/11/13 07:50:17;;;;;;;32.60;20.23;;;;;;;;;;4962723;28;20442;-75
2022/11/13 07:52:43;;;;;;;22.33;16.63;;;;;;;;;;4951630;29;20041;-76
2022/11/13 07:55:09;;;;;;;23.77;16.38;;;;;;;;;;4963814;28;20039;-80
2022/11/13 07:57:35;;;;;;;21.13;15.90;;;;;;;;;;4935849;28;20046;-76
2022/11/13 08:00:01;;;;;;;25.35;16.73;;;;;;;;;;4949723;28;20384;-75
2022/11/13 08:02:27;;;;;;;20.55;14.82;;;;;;;;;;4932918;28;20053;-76
2022/11/13 08:04:53;;;;;;;19.58;15.30;;;;;;;;;;4963223;28;20058;-77
2022/11/13 08:07:19;;;;;;;19.90;15.50;;;;;;;;;;4951954;28;20027;-76
2022/11/13 08:09:45;;;;;;;22.65;16.05;;;;;;;;;;4956330;28;20086;-76
2022/11/13 08:12:11;;;;;;;23.15;15.65;;;;;;;;;;4944564;28;20047;-78
2022/11/13 08:14:39;;;;;;;22.83;15.98;;;;;;;;;;4947754;28;24749;-77
2022/11/13 08:17:05;;;;;;;23.77;14.25;;;;;;;;;;4960343;28;20450;-74
2022/11/13 08:19:31;;;;;;;21.35;14.15;;;;;;;;;;4955994;28;20055;-74
2022/11/13 08:21:57;;;;;;;19.85;14.95;;;;;;;;;;4950995;28;20035;-74
2022/11/13 08:24:23;;;;;;;21.15;15.07;;;;;;;;;;4943708;28;20035;-74
2022/11/13 08:26:49;;;;;;;23.90;15.25;;;;;;;;;;4950972;28;20540;-74
2022/11/13 08:29:15;;;;;;;19.50;13.02;;;;;;;;;;4956132;28;20047;-73
2022/11/13 08:31:41;;;;;;;17.73;13.65;;;;;;;;;;4937989;28;20436;-76
2022/11/13 08:34:07;;;;;;;18.00;13.65;;;;;;;;;;4953320;28;20026;-74
2022/11/13 08:36:33;;;;;;;28.65;19.08;;;;;;;;;;4943176;28;20035;-76
2022/11/13 08:38:59;;;;;;;24.52;17.30;;;;;;;;;;4966682;28;20031;-75
2022/11/13 08:41:25;;;;;;;18.70;13.55;;;;;;;;;;4938792;28;20047;-74
2022/11/13 08:43:51;;;;;;;15.60;11.80;;;;;;;;;;4949328;28;20087;-77
2022/11/13 08:46:17;;;;;;;16.27;11.82;;;;;;;;;;4928431;28;20048;-73
2022/11/13 08:48:43;;;;;;;17.70;11.00;;;;;;;;;;4946403;28;20043;-77
2022/11/13 08:51:09;;;;;;;15.90;12.15;;;;;;;;;;4943333;28;20039;-75
2022/11/13 08:53:36;;;;;;;15.32;12.32;;;;;;;;;;4950678;29;20460;-75
2022/11/13 08:56:02;;;;;;;14.60;10.98;;;;;;;;;;4953061;28;20480;-76
2022/11/13 08:58:28;;;;;;;17.63;10.73;;;;;;;;;;4934821;29;20038;-76
2022/11/13 09:00:59;;;;;;;13.23;11.18;;;;;;;;;;4941980;28;20030;-76
2022/11/13 09:03:25;;;;;;;13.85;10.68;;;;;;;;;;4939962;28;20058;-79
2022/11/13 09:05:51;;;;;;;17.23;10.70;;;;;;;;;;4951231;28;20109;-74
2022/11/13 09:08:17;;;;;;;14.50;10.02;;;;;;;;;;4956505;28;20055;-75
2022/11/13 09:10:43;;;;;;;12.70;9.90;;;;;;;;;;4931775;28;20044;-78
2022/11/13 09:13:10;;;;;;;14.43;10.52;;;;;;;;;;4933941;29;20031;-76
2022/11/13 09:15:37;;;;;;;13.10;9.38;;;;;;;;;;4960089;28;20095;-76
2022/11/13 09:18:03;;;;;;;12.82;8.65;;;;;;;;;;4923312;29;20031;-76
2022/11/13 09:20:31;;;;;;;16.17;9.18;;;;;;;;;;4949305;28;20118;-75
2022/11/13 09:22:58;;;;;;;12.57;9.15;;;;;;;;;;4951144;28;20476;-77
2022/11/13 09:25:24;;;;;;;11.85;9.85;;;;;;;;;;4957364;28;20035;-76
2022/11/13 09:27:57;;;;;;;12.10;8.98;;;;;;;;;;4951400;29;20388;-77
2022/11/13 09:30:23;;;;;;;10.98;8.18;;;;;;;;;;4933103;28;20095;-76
2022/11/13 09:32:54;;;;;;;12.13;9.18;;;;;;;;;;4947736;28;20134;-76
2022/11/13 09:35:32;;;;;;;12.85;9.32;;;;;;;;;;4931497;28;20062;-74
2022/11/13 09:37:59;;;;;;;15.30;8.82;;;;;;;;;;4960116;28;20090;-77
2022/11/13 09:40:28;;;;;;;10.75;8.85;;;;;;;;;;4956625;28;20046;-79
2022/11/13 09:42:56;;;;;;;11.45;8.55;;;;;;;;;;4942116;28;20051;-79
2022/11/13 09:45:22;;;;;;;16.25;9.60;;;;;;;;;;4917515;28;20535;-77
2022/11/13 09:47:50;;;;;;;11.63;7.93;;;;;;;;;;4931489;28;20820;-72
2022/11/13 09:50:24;;;;;;;13.30;8.27;;;;;;;;;;4937819;28;20392;-72
2022/11/13 09:52:52;;;;;;;22.83;12.68;;;;;;;;;;4949370;28;20068;-76
2022/11/13 09:55:19;;;;;;;10.85;8.18;;;;;;;;;;4956329;28;20121;-77
2022/11/13 09:57:52;;;;;;;12.45;8.50;;;;;;;;;;4945626;28;20041;-75
2022/11/13 10:00:19;;;;;;;10.00;7.20;;;;;;;;;;4947959;28;20038;-75
2022/11/13 10:03:23;;;;;;;10.40;7.88;;;;;;;;;;4941706;28;20024;-76
2022/11/13 10:05:48;;;;;;;;;;;;;;;;;;4898966;29;20074;-78
2022/11/13 10:08:29;;;;;;;9.70;7.40;;;;;;;;;;4933707;28;19933;-77
2022/11/13 10:11:04;;;;;;;13.82;7.95;;;;;;;;;;4949911;28;20086;-78
2022/11/13 10:13:47;;;;;;;7.90;6.63;;;;;;;;;;4942585;28;20030;-75
2022/11/13 10:16:29;;;;;;;10.88;7.05;;;;;;;;;;4953962;28;20043;-76
2022/11/13 10:18:58;;;;;;;7.68;6.60;;;;;;;;;;4958089;28;20122;-76
2022/11/13 10:21:37;;;;;;;7.40;6.22;;;;;;;;;;4960428;28;20118;-76
2022/11/13 10:24:04;;;;;;;6.63;5.72;;;;;;;;;;4920198;29;20036;-75
2022/11/13 10:26:31;;;;;;;8.70;6.38;;;;;;;;;;4955276;28;20043;-75
2022/11/13 10:29:02;;;;;;;7.38;5.53;;;;;;;;;;4944845;29;20028;-76
2022/11/13 10:31:28;;;;;;;5.20;4.43;;;;;;;;;;4951982;28;20055;-75
2022/11/13 10:33:54;;;;;;;6.88;4.95;;;;;;;;;;4954462;28;20035;-76
2022/11/13 10:36:20;;;;;;;7.13;4.97;;;;;;;;;;4939846;29;20028;-75
2022/11/13 10:38:49;;;;;;;6.72;5.00;;;;;;;;;;4954706;29;20413;-77
2022/11/13 10:41:16;;;;;;;5.82;4.70;;;;;;;;;;4954114;28;20066;-76
2022/11/13 10:43:52;;;;;;;7.68;5.22;;;;;;;;;;4955435;28;20089;-75
2022/11/13 10:46:19;;;;;;;5.68;5.13;;;;;;;;;;4952601;28;20035;-74
2022/11/13 10:48:45;;;;;;;6.18;5.15;;;;;;;;;;4941434;29;20031;-75
2022/11/13 10:51:28;;;;;;;7.45;4.80;;;;;;;;;;4938724;28;20039;-76
2022/11/13 10:53:54;;;;;;;5.10;4.60;;;;;;;;;;4966553;28;20517;-75
2022/11/13 10:56:21;;;;;;;5.75;4.43;;;;;;;;;;4953790;28;20038;-75
2022/11/13 10:59:06;;;;;;;4.75;4.25;;;;;;;;;;4953655;29;20023;-75
2022/11/13 11:01:32;;;;;;;6.25;4.28;;;;;;;;;;4953449;28;20031;-77
2022/11/13 11:03:58;;;;;;;5.80;4.85;;;;;;;;;;4953077;28;20078;-75
2022/11/13 11:06:34;;;;;;;5.07;4.57;;;;;;;;;;4951165;28;20035;-75
2022/11/13 11:09:27;;;;;;;7.32;4.22;;;;;;;;;;4953273;28;20035;-78
2022/11/13 11:12:17;;;;;;;5.10;4.15;;;;;;;;;;4951545;29;20445;-79
2022/11/13 11:14:46;;;;;;;6.93;4.70;;;;;;;;;;4953634;29;20365;-78
2022/11/13 11:17:15;;;;;;;5.78;4.22;;;;;;;;;;4950556;28;20053;-75
2022/11/13 11:19:43;;;;;;;8.95;4.10;;;;;;;;;;4971528;28;20451;-77
2022/11/13 11:22:14;;;;;;;7.30;3.97;;;;;;;;;;4936241;29;20031;-74
2022/11/13 11:24:45;;;;;;;5.53;4.60;;;;;;;;;;4953829;28;20028;-74
2022/11/13 11:27:21;;;;;;;4.30;3.75;;;;;;;;;;4965445;28;20649;-76
2022/11/13 11:29:59;;;;;;;5.82;4.47;;;;;;;;;;4954331;28;20478;-75
2022/11/13 11:32:29;;;;;;;5.63;4.43;;;;;;;;;;4952197;28;20492;-74
2022/11/13 11:35:14;;;;;;;6.07;4.25;;;;;;;;;;4942698;28;20529;-75
2022/11/13 11:37:46;;;;;;;4.70;3.75;;;;;;;;;;4953005;29;20032;-75
2022/11/13 11:40:12;;;;;;;;;;;;;;;;;;4950354;28;20039;-75
2022/11/13 11:42:38;;;;;;;6.22;4.70;;;;;;;;;;4937150;28;20489;-76
2022/11/13 11:45:13;;;;;;;5.43;4.43;;;;;;;;;;4944456;28;20535;-79
2022/11/13 11:47:39;;;;;;;8.93;4.35;;;;;;;;;;4946726;28;20380;-74
2022/11/13 11:50:11;;;;;;;6.25;3.88;;;;;;;;;;4939947;28;20066;-77
2022/11/13 11:52:46;;;;;;;6.00;4.00;;;;;;;;;;4956829;28;20530;-74
2022/11/13 11:55:19;;;;;;;5.47;3.65;;;;;;;;;;4938537;28;20042;-75
2022/11/13 11:57:52;;;;;;;23.33;14.02;;;;;;;;;;4941959;28;20041;-75
2022/11/13 12:00:19;;;;;;;8.73;5.32;;;;;;;;;;4947189;28;20023;-72
2022/11/13 12:02:58;;;;;;;8.68;6.47;;;;;;;;;;4945785;28;20476;-76
2022/11/13 12:05:29;;;;;;;5.30;3.80;;;;;;;;;;4945383;28;20430;-76
2022/11/13 12:08:14;;;;;;;5.17;3.83;;;;;;;;;;4934740;28;20035;-76
2022/11/13 12:10:43;;;;;;;6.35;3.42;;;;;;;;;;4944085;28;20295;-77
2022/11/13 12:13:09;;;;;;;4.60;2.92;;;;;;;;;;4938451;28;20031;-74
2022/11/13 12:15:44;;;;;;;5.57;3.22;;;;;;;;;;4942898;28;20388;-74
2022/11/13 12:18:26;;;;;;;3.95;3.40;;;;;;;;;;4930286;28;20121;-75
2022/11/13 12:20:55;;;;;;;3.83;3.10;;;;;;;;;;4943235;28;20039;-76
2022/11/13 12:23:30;;;;;;;3.53;3.15;;;;;;;;;;4935616;28;20036;-76
2022/11/13 12:26:07;;;;;;;5.93;3.70;;;;;;;;;;4946718;28;20031;-76
2022/11/13 12:28:38;;;;;;;5.15;3.92;;;;;;;;;;4934185;28;20078;-74
2022/11/13 12:31:14;;;;;;;4.50;3.65;;;;;;;;;;4942627;28;20038;-75
2022/11/13 12:33:46;;;;;;;7.68;5.25;;;;;;;;;;4940106;28;20491;-74
2022/11/13 12:36:12;;;;;;;8.63;6.03;;;;;;;;;;4944332;28;20095;-78
2022/11/13 12:39:00;;;;;;;6.40;4.82;;;;;;;;;;4937148;28;20483;-76
2022/11/13 12:41:49;;;;;;;7.32;3.92;;;;;;;;;;4943182;28;20036;-79
2022/11/13 12:44:24;;;;;;;3.60;3.22;;;;;;;;;;4938869;28;20653;-77
2022/11/13 12:46:52;;;;;;;6.90;3.88;;;;;;;;;;4940603;28;20065;-81
2022/11/13 12:49:34;;;;;;;4.53;3.92;;;;;;;;;;4945356;28;20117;-75
2022/11/13 12:52:00;;;;;;;;;;;;;;;;;;4939781;28;20039;-81
2022/11/13 12:54:26;;;;;;;7.10;3.55;;;;;;;;;;4939029;28;20020;-76
2022/11/13 12:56:52;;;;;;;6.20;3.90;;;;;;;;;;4944234;28;20031;-76
2022/11/13 12:59:19;;;;;;;3.85;3.47;;;;;;;;;;4944433;28;20035;-79
2022/11/13 13:01:51;;;;;;;3.72;3.30;;;;;;;;;;4957221;28;20283;-77
2022/11/13 13:04:17;;;;;;;;;;;;;;;;;;4945716;28;20051;-76
2022/11/13 13:07:02;;;;;;;5.22;3.53;;;;;;;;;;4946347;28;19911;-80
2022/11/13 13:09:34;;;;;;;6.18;3.05;;;;;;;;;;4949133;29;20475;-76
2022/11/13 13:12:06;;;;;;;4.90;3.50;;;;;;;;;;4956228;28;20853;-79
2022/11/13 13:14:57;;;;;;;5.95;3.25;;;;;;;;;;4951478;29;20156;-74
2022/11/13 13:17:23;;;;;;;3.58;3.20;;;;;;;;;;4939588;28;20093;-76
2022/11/13 13:20:07;;;;;;;4.47;3.25;;;;;;;;;;4960858;28;20030;-81
2022/11/13 13:22:34;;;;;;;5.03;3.42;;;;;;;;;;4959237;28;20361;-75
2022/11/13 13:25:21;;;;;;;6.05;3.42;;;;;;;;;;4965657;28;20038;-76
2022/11/13 13:27:58;;;;;;;6.05;3.50;;;;;;;;;;4958993;28;20054;-75
2022/11/13 13:30:30;;;;;;;7.20;3.78;;;;;;;;;;4948542;28;20043;-74
2022/11/13 13:32:58;;;;;;;7.05;3.55;;;;;;;;;;4946608;28;20108;-78
2022/11/13 13:35:38;;;;;;;5.43;4.13;;;;;;;;;;4961870;28;20415;-75
2022/11/13 13:38:13;;;;;;;6.03;4.60;;;;;;;;;;4942204;29;20035;-75
2022/11/13 13:41:05;;;;;;;5.65;4.47;;;;;;;;;;4945809;28;20039;-75
2022/11/13 13:43:45;;;;;;;8.70;4.30;;;;;;;;;;4955409;28;20027;-78
2022/11/13 13:46:16;;;;;;;8.45;5.32;;;;;;;;;;4947259;28;20023;-75
2022/11/13 13:48:44;;;;;;;6.18;4.53;;;;;;;;;;4961521;28;20038;-77
2022/11/13 13:51:26;;;;;;;7.30;5.25;;;;;;;;;;4955631;28;20046;-74
2022/11/13 13:53:52;;;;;;;5.68;4.38;;;;;;;;;;4974136;28;20018;-74
2022/11/13 13:56:20;;;;;;;9.50;4.50;;;;;;;;;;4945942;28;20471;-75
2022/11/13 13:58:46;;;;;;;5.75;4.35;;;;;;;;;;4954956;29;20039;-75
2022/11/13 14:01:13;;;;;;;8.18;4.25;;;;;;;;;;4949529;28;20032;-75
2022/11/13 14:03:39;;;;;;;7.20;4.13;;;;;;;;;;4950661;28;20055;-84
2022/11/13 14:06:24;;;;;;;5.80;4.35;;;;;;;;;;4958645;28;20452;-76
2022/11/13 14:08:50;;;;;;;7.65;3.95;;;;;;;;;;4966099;28;20038;-80
2022/11/13 14:11:28;;;;;;;6.25;4.03;;;;;;;;;;4949796;28;20501;-76
2022/11/13 14:13:54;;;;;;;6.55;3.95;;;;;;;;;;4962600;28;20031;-77
2022/11/13 14:16:20;;;;;;;5.05;4.47;;;;;;;;;;4949137;28;20039;-76
2022/11/13 14:18:46;;;;;;;7.18;3.85;;;;;;;;;;4954180;29;20353;-76
2022/11/13 14:21:20;;;;;;;6.55;3.90;;;;;;;;;;4951398;28;20062;-81
2022/11/13 14:23:48;;;;;;;5.43;4.47;;;;;;;;;;4937488;29;20059;-79
2022/11/13 14:26:15;;;;;;;7.30;4.43;;;;;;;;;;4951679;28;20254;-76
2022/11/13 14:28:46;;;;;;;7.53;4.68;;;;;;;;;;4954567;29;20039;-80
2022/11/13 14:31:13;;;;;;;6.47;4.87;;;;;;;;;;4949914;28;20035;-75
2022/11/13 14:33:44;;;;;;;9.60;4.65;;;;;;;;;;4925920;28;20725;-76
2022/11/13 14:36:10;;;;;;;4.93;3.88;;;;;;;;;;4963302;28;20114;-75
2022/11/13 14:38:40;;;;;;;7.47;4.55;;;;;;;;;;4955832;28;20034;-80